createdAt,value
2018-02-05T00:00:01.872Z,10.80
2018-02-05T00:02:29.550Z,10.70
2018-02-05T00:04:57.930Z,10.70
2018-02-05T00:07:26.323Z,10.70
2018-02-05T00:09:53.969Z,10.70
2018-02-05T00:12:22.476Z,10.70
2018-02-05T00:14:50.070Z,10.70
2018-02-05T00:17:17.633Z,10.70
2018-02-05T00:19:45.242Z,10.70
2018-02-05T00:22:15.326Z,10.70
2018-02-05T00:24:43.742Z,10.70
2018-02-05T00:27:12.142Z,10.70
2018-02-05T00:29:39.776Z,10.70
2018-02-05T00:32:08.155Z,10.70
2018-02-05T00:34:36.539Z,10.70
2018-02-05T00:37:04.910Z,10.70
2018-02-05T00:39:32.570Z,10.70
2018-02-05T00:42:00.966Z,10.70
2018-02-05T00:44:29.320Z,10.70
2018-02-05T00:46:56.917Z,10.70
2018-02-05T00:49:24.567Z,10.70
2018-02-05T00:51:52.981Z,10.70
2018-02-05T00:54:20.917Z,10.60
2018-02-05T00:56:49.272Z,10.70
2018-02-05T00:59:16.944Z,10.70
2018-02-05T01:01:44.529Z,10.70
2018-02-05T01:04:12.114Z,10.70
2018-02-05T01:06:39.767Z,10.70
2018-02-05T01:09:07.428Z,10.70
2018-02-05T01:11:35.075Z,10.70
2018-02-05T01:14:02.654Z,10.70
2018-02-05T01:16:30.234Z,10.70
2018-02-05T01:18:57.853Z,10.70
2018-02-05T01:21:26.197Z,10.70
2018-02-05T01:23:53.801Z,10.70
2018-02-05T01:26:21.654Z,10.70
2018-02-05T01:28:49.999Z,10.60
2018-02-05T01:31:17.596Z,10.60
2018-02-05T01:33:45.968Z,10.60
2018-02-05T01:36:14.310Z,10.60
2018-02-05T01:38:41.910Z,10.60
2018-02-05T01:41:10.267Z,10.60
2018-02-05T01:43:37.959Z,10.60
2018-02-05T01:46:06.298Z,10.60
2018-02-05T01:48:33.888Z,10.60
2018-02-05T01:51:02.233Z,10.70
2018-02-05T01:53:29.853Z,10.60
2018-02-05T01:55:57.506Z,10.60
2018-02-05T01:58:25.142Z,10.60
2018-02-05T02:00:52.911Z,10.60
2018-02-05T02:03:20.856Z,10.60
2018-02-05T02:05:48.451Z,10.60
2018-02-05T02:08:16.827Z,10.60
2018-02-05T02:10:44.405Z,10.60
2018-02-05T02:13:12.773Z,10.60
2018-02-05T02:15:41.156Z,10.60
2018-02-05T02:18:09.531Z,10.60
2018-02-05T02:20:37.923Z,10.60
2018-02-05T02:23:06.260Z,10.60
2018-02-05T02:25:33.950Z,10.60
2018-02-05T02:28:02.293Z,10.60
2018-02-05T02:30:29.876Z,10.60
2018-02-05T02:32:57.555Z,10.60
2018-02-05T02:35:25.903Z,10.60
2018-02-05T02:37:53.487Z,10.60
2018-02-05T02:40:21.403Z,10.60
2018-02-05T02:42:49.338Z,10.60
2018-02-05T02:45:17.717Z,10.60
2018-02-05T02:47:46.051Z,10.60
2018-02-05T02:50:13.657Z,10.60
2018-02-05T02:52:42.018Z,10.60
2018-02-05T02:55:09.606Z,10.60
2018-02-05T02:57:37.945Z,10.60
2018-02-05T03:00:05.523Z,10.60
2018-02-05T03:02:33.117Z,10.60
2018-02-05T03:05:00.766Z,10.60
2018-02-05T03:07:29.139Z,10.60
2018-02-05T03:09:57.524Z,10.60
2018-02-05T03:12:25.880Z,10.60
2018-02-05T03:14:53.455Z,10.50
2018-02-05T03:17:21.808Z,10.50
2018-02-05T03:19:49.390Z,10.50
2018-02-05T03:22:17.756Z,10.50
2018-02-05T03:24:45.458Z,10.50
2018-02-05T03:27:13.101Z,10.60
2018-02-05T03:29:41.442Z,10.50
2018-02-05T03:32:09.016Z,10.50
2018-02-05T03:34:36.589Z,10.50
2018-02-05T03:37:05.681Z,10.50
2018-02-05T03:39:33.373Z,10.50
2018-02-05T03:42:01.736Z,10.50
2018-02-05T03:44:29.317Z,10.50
2018-02-05T03:46:56.910Z,10.50
2018-02-05T03:49:24.490Z,10.50
2018-02-05T03:51:52.499Z,10.50
2018-02-05T03:54:21.297Z,10.50
2018-02-05T03:56:49.656Z,10.50
2018-02-05T03:59:17.224Z,10.50
2018-02-05T04:01:45.600Z,10.50
2018-02-05T04:04:13.943Z,10.50
2018-02-05T04:06:47.301Z,10.50
2018-02-05T04:09:14.944Z,10.50
2018-02-05T04:11:43.281Z,10.50
2018-02-05T04:14:10.877Z,10.40
2018-02-05T04:16:39.269Z,10.50
2018-02-05T04:19:07.648Z,10.50
2018-02-05T04:21:36.023Z,10.50
2018-02-05T04:24:04.411Z,10.50
2018-02-05T04:26:32.089Z,10.50
2018-02-05T04:28:59.702Z,10.40
2018-02-05T04:31:27.280Z,10.40
2018-02-05T04:33:54.866Z,10.40
2018-02-05T04:36:22.816Z,10.40
2018-02-05T04:38:51.388Z,10.40
2018-02-05T04:41:19.737Z,10.40
2018-02-05T04:43:47.352Z,10.40
2018-02-05T04:46:15.687Z,10.40
2018-02-05T04:48:43.255Z,10.40
2018-02-05T04:51:10.840Z,10.40
2018-02-05T04:53:39.181Z,10.40
2018-02-05T04:56:06.760Z,10.40
2018-02-05T04:58:34.375Z,10.40
2018-02-05T05:01:02.104Z,10.40
2018-02-05T05:03:30.481Z,10.40
2018-02-05T05:05:58.828Z,10.40
2018-02-05T05:08:26.411Z,10.40
2018-02-05T05:10:54.007Z,10.40
2018-02-05T05:13:21.711Z,10.40
2018-02-05T05:15:49.293Z,10.40
2018-02-05T05:18:16.869Z,10.40
2018-02-05T05:20:44.450Z,10.40
2018-02-05T05:23:12.037Z,10.40
2018-02-05T05:25:39.652Z,10.40
2018-02-05T05:28:07.988Z,10.30
2018-02-05T05:30:35.598Z,10.30
2018-02-05T05:33:03.933Z,10.30
2018-02-05T05:35:31.525Z,10.30
2018-02-05T05:37:59.958Z,10.30
2018-02-05T05:40:27.577Z,10.30
2018-02-05T05:42:55.913Z,10.30
2018-02-05T05:45:23.517Z,10.30
2018-02-05T05:47:51.922Z,10.30
2018-02-05T05:50:19.564Z,10.30
2018-02-05T05:52:47.947Z,10.30
2018-02-05T05:55:15.543Z,10.30
2018-02-05T05:57:43.134Z,10.30
2018-02-05T06:00:11.543Z,10.30
2018-02-05T06:02:39.930Z,10.30
2018-02-05T06:05:08.269Z,10.30
2018-02-05T06:07:36.099Z,10.30
2018-02-05T06:10:04.453Z,10.30
2018-02-05T06:12:32.805Z,10.30
2018-02-05T06:15:00.520Z,10.30
2018-02-05T06:17:28.175Z,10.30
2018-02-05T06:19:55.874Z,10.30
2018-02-05T06:22:23.493Z,10.30
2018-02-05T06:24:51.440Z,10.30
2018-02-05T06:27:19.086Z,10.30
2018-02-05T06:29:46.651Z,10.30
2018-02-05T06:32:14.227Z,10.20
2018-02-05T06:34:41.806Z,10.20
2018-02-05T06:37:10.144Z,10.30
2018-02-05T06:39:37.754Z,10.20
2018-02-05T06:42:05.357Z,10.20
2018-02-05T06:44:33.012Z,10.20
2018-02-05T06:47:00.745Z,10.20
2018-02-05T06:49:28.309Z,10.20
2018-02-05T06:52:07.817Z,10.20
2018-02-05T06:54:47.454Z,10.20
2018-02-05T06:57:15.127Z,10.20
2018-02-05T06:59:42.700Z,10.20
2018-02-05T07:02:11.064Z,10.20
2018-02-05T07:04:38.632Z,10.20
2018-02-05T07:07:06.433Z,10.20
2018-02-05T07:09:34.101Z,10.20
2018-02-05T07:12:01.769Z,10.20
2018-02-05T07:14:29.434Z,10.20
2018-02-05T07:16:57.815Z,10.20
2018-02-05T07:19:26.146Z,10.20
2018-02-05T07:21:53.759Z,10.20
2018-02-05T07:24:22.114Z,10.20
2018-02-05T07:26:50.512Z,10.20
2018-02-05T07:29:18.083Z,10.20
2018-02-05T07:31:45.697Z,10.20
2018-02-05T07:34:13.280Z,10.20
2018-02-05T07:36:40.911Z,10.20
2018-02-05T07:39:08.546Z,10.20
2018-02-05T07:41:37.098Z,10.20
2018-02-05T07:44:04.687Z,10.20
2018-02-05T07:46:32.361Z,10.20
2018-02-05T07:48:59.937Z,10.20
2018-02-05T07:51:27.528Z,10.20
2018-02-05T07:53:55.117Z,10.20
2018-02-05T07:56:22.821Z,10.20
2018-02-05T07:58:50.381Z,10.20
2018-02-05T08:01:17.967Z,10.20
2018-02-05T08:03:45.591Z,10.20
2018-02-05T08:06:13.179Z,10.20
2018-02-05T08:08:40.776Z,10.20
2018-02-05T08:11:09.189Z,10.20
2018-02-05T08:13:36.793Z,10.20
2018-02-05T08:16:04.381Z,10.20
2018-02-05T08:18:32.719Z,10.30
2018-02-05T08:21:00.315Z,10.30
2018-02-05T08:23:27.899Z,10.30
2018-02-05T08:25:55.481Z,10.30
2018-02-05T08:28:23.106Z,10.30
2018-02-05T08:30:51.435Z,10.40
2018-02-05T08:33:19.034Z,10.40
2018-02-05T08:35:46.649Z,10.40
2018-02-05T08:38:14.218Z,10.40
2018-02-05T08:40:41.785Z,10.40
2018-02-05T08:43:09.358Z,10.50
2018-02-05T08:45:37.268Z,10.50
2018-02-05T08:48:04.929Z,10.50
2018-02-05T08:50:33.287Z,10.60
2018-02-05T08:53:00.862Z,10.60
2018-02-05T08:55:29.203Z,10.70
2018-02-05T08:57:56.795Z,10.60
2018-02-05T09:00:24.379Z,10.70
2018-02-05T09:02:52.742Z,10.70
2018-02-05T09:05:21.119Z,10.80
2018-02-05T09:07:49.503Z,10.80
2018-02-05T09:10:17.880Z,10.80
2018-02-05T09:12:46.281Z,10.80
2018-02-05T09:15:13.925Z,10.80
2018-02-05T09:17:41.525Z,10.90
2018-02-05T09:20:09.163Z,10.90
2018-02-05T09:22:36.820Z,10.90
2018-02-05T09:25:04.445Z,10.90
2018-02-05T09:27:32.182Z,10.90
2018-02-05T09:29:59.756Z,11.00
2018-02-05T09:32:27.357Z,11.00
2018-02-05T09:34:55.696Z,11.00
2018-02-05T09:37:23.282Z,11.00
2018-02-05T09:39:50.974Z,11.10
2018-02-05T09:42:19.317Z,11.10
2018-02-05T09:44:47.015Z,11.10
2018-02-05T09:47:15.363Z,11.10
2018-02-05T09:49:43.049Z,11.10
2018-02-05T09:52:11.452Z,11.20
2018-02-05T09:54:39.036Z,11.10
2018-02-05T09:57:07.141Z,11.20
2018-02-05T09:59:34.825Z,11.20
2018-02-05T10:02:03.199Z,11.20
2018-02-05T10:04:31.542Z,11.20
2018-02-05T10:06:59.144Z,11.10
2018-02-05T10:09:27.520Z,11.10
2018-02-05T10:11:55.908Z,11.10
2018-02-05T10:14:24.296Z,11.10
2018-02-05T10:16:52.670Z,11.10
2018-02-05T10:19:21.015Z,11.10
2018-02-05T10:21:48.600Z,11.10
2018-02-05T10:24:16.980Z,11.10
2018-02-05T10:26:45.321Z,11.10
2018-02-05T10:29:12.899Z,11.10
2018-02-05T10:31:40.602Z,11.10
2018-02-05T10:34:08.188Z,11.10
2018-02-05T10:36:36.331Z,11.10
2018-02-05T10:39:04.696Z,11.10
2018-02-05T10:41:33.079Z,11.00
2018-02-05T10:44:01.460Z,11.00
2018-02-05T10:46:29.840Z,11.00
2018-02-05T10:48:58.201Z,11.00
2018-02-05T10:51:25.997Z,11.00
2018-02-05T10:53:53.660Z,11.00
2018-02-05T10:56:21.253Z,11.00
2018-02-05T10:58:48.879Z,11.00
2018-02-05T11:01:17.215Z,11.00
2018-02-05T11:03:44.789Z,11.00
2018-02-05T11:06:12.368Z,11.00
2018-02-05T11:08:40.711Z,11.00
2018-02-05T11:11:08.303Z,10.90
2018-02-05T11:13:36.293Z,10.90
2018-02-05T11:16:04.654Z,10.90
2018-02-05T11:18:33.022Z,10.90
2018-02-05T11:21:00.617Z,10.90
2018-02-05T11:23:28.992Z,10.90
2018-02-05T11:25:57.334Z,10.90
2018-02-05T11:28:24.933Z,10.90
2018-02-05T11:30:52.516Z,10.90
2018-02-05T11:33:20.189Z,10.90
2018-02-05T11:35:47.803Z,10.90
2018-02-05T11:38:16.151Z,10.90
2018-02-05T11:40:43.757Z,10.90
2018-02-05T11:43:12.141Z,10.90
2018-02-05T11:45:39.731Z,10.80
2018-02-05T11:48:08.474Z,10.90
2018-02-05T11:50:38.155Z,10.90
2018-02-05T11:53:06.168Z,10.80
2018-02-05T11:55:34.561Z,10.80
2018-02-05T11:58:02.143Z,10.80
2018-02-05T12:00:29.734Z,10.80
2018-02-05T12:02:57.419Z,10.90
2018-02-05T12:05:25.792Z,10.80
2018-02-05T12:07:53.474Z,10.80
2018-02-05T12:10:21.818Z,10.80
2018-02-05T12:12:49.404Z,10.80
2018-02-05T12:15:17.791Z,10.80
2018-02-05T12:17:46.169Z,10.80
2018-02-05T12:20:14.550Z,10.80
2018-02-05T12:22:42.891Z,10.80
2018-02-05T12:25:10.478Z,10.80
2018-02-05T12:27:38.050Z,10.80
2018-02-05T12:30:07.615Z,10.80
2018-02-05T12:32:35.179Z,10.80
2018-02-05T12:35:02.766Z,10.80
2018-02-05T12:37:30.340Z,10.80
2018-02-05T12:39:57.927Z,10.80
2018-02-05T12:42:25.537Z,10.80
2018-02-05T12:44:53.235Z,10.80
2018-02-05T12:47:20.875Z,10.80
2018-02-05T12:49:49.226Z,10.80
2018-02-05T12:52:16.792Z,10.80
2018-02-05T12:54:44.379Z,10.80
2018-02-05T12:57:12.726Z,10.80
2018-02-05T12:59:46.039Z,10.80
2018-02-05T13:02:14.718Z,10.80
2018-02-05T13:04:57.192Z,10.80
2018-02-05T13:07:24.769Z,10.80
2018-02-05T13:09:52.491Z,10.80
2018-02-05T13:12:20.127Z,10.80
2018-02-05T13:14:48.477Z,10.80
2018-02-05T13:17:16.057Z,10.80
2018-02-05T13:19:44.470Z,10.80
2018-02-05T13:22:12.055Z,10.80
2018-02-05T13:24:39.641Z,10.80
2018-02-05T13:27:07.220Z,10.80
2018-02-05T13:29:35.795Z,10.80
2018-02-05T13:32:03.366Z,10.80
2018-02-05T13:34:31.037Z,10.80
2018-02-05T13:36:59.409Z,10.80
2018-02-05T13:39:26.979Z,10.80
2018-02-05T13:41:55.352Z,10.80
2018-02-05T13:44:23.740Z,10.80
2018-02-05T13:46:52.081Z,10.80
2018-02-05T13:49:19.661Z,10.80
2018-02-05T13:51:47.236Z,10.80
2018-02-05T13:54:15.713Z,10.70
2018-02-05T13:56:43.281Z,10.70
2018-02-05T13:59:12.170Z,10.70
2018-02-05T14:01:40.559Z,10.70
2018-02-05T14:04:09.448Z,10.70
2018-02-05T14:06:37.784Z,10.80
2018-02-05T14:09:05.643Z,10.70
2018-02-05T14:11:33.214Z,10.70
2018-02-05T14:14:00.788Z,10.70
2018-02-05T14:16:28.369Z,10.70
2018-02-05T14:19:16.413Z,10.70
2018-02-05T14:21:44.813Z,10.80
2018-02-05T14:24:12.456Z,10.70
2018-02-05T14:26:40.803Z,10.80
2018-02-05T14:29:08.546Z,10.70
2018-02-05T14:31:36.156Z,10.70
2018-02-05T14:34:03.828Z,10.70
2018-02-05T14:36:32.195Z,10.70
2018-02-05T14:38:59.757Z,10.70
2018-02-05T14:41:27.429Z,10.70
2018-02-05T14:43:55.767Z,10.70
2018-02-05T14:46:23.378Z,10.70
2018-02-05T14:48:51.044Z,10.70
2018-02-05T14:51:18.643Z,10.70
2018-02-05T14:53:46.258Z,10.70
2018-02-05T14:56:15.072Z,10.70
2018-02-05T14:58:42.731Z,10.70
2018-02-05T15:01:10.668Z,10.70
2018-02-05T15:03:38.343Z,10.70
2018-02-05T15:06:07.158Z,10.70
2018-02-05T15:08:34.789Z,10.70
2018-02-05T15:11:03.139Z,10.70
2018-02-05T15:13:30.719Z,10.60
2018-02-05T15:15:59.060Z,10.70
2018-02-05T15:18:26.667Z,10.60
2018-02-05T15:20:55.049Z,10.70
2018-02-05T15:23:23.379Z,10.70
2018-02-05T15:25:51.012Z,10.70
2018-02-05T15:28:18.660Z,10.70
2018-02-05T15:30:47.025Z,10.60
2018-02-05T15:33:15.192Z,10.60
2018-02-05T15:35:42.780Z,10.60
2018-02-05T15:38:11.112Z,10.60
2018-02-05T15:40:38.886Z,10.60
2018-02-05T15:43:06.978Z,10.60
2018-02-05T15:45:34.553Z,10.60
2018-02-05T15:48:02.880Z,10.60
2018-02-05T15:50:35.285Z,10.60
2018-02-05T15:53:02.970Z,10.60
2018-02-05T15:55:31.315Z,10.60
2018-02-05T15:57:58.882Z,10.60
2018-02-05T16:00:26.558Z,10.60
2018-02-05T16:02:56.018Z,10.60
2018-02-05T16:05:23.666Z,10.60
2018-02-05T16:07:51.404Z,10.60
2018-02-05T16:10:19.781Z,10.60
2018-02-05T16:12:48.135Z,10.60
2018-02-05T16:15:15.821Z,10.60
2018-02-05T16:17:44.168Z,10.50
2018-02-05T16:20:11.791Z,10.50
2018-02-05T16:22:39.629Z,10.50
2018-02-05T16:25:11.218Z,10.50
2018-02-05T16:27:39.761Z,10.50
2018-02-05T16:30:08.145Z,10.50
2018-02-05T16:32:37.531Z,10.50
2018-02-05T16:35:05.610Z,10.50
2018-02-05T16:37:33.948Z,10.50
2018-02-05T16:40:01.518Z,10.50
2018-02-05T16:42:29.079Z,10.50
2018-02-05T16:44:56.691Z,10.50
2018-02-05T16:47:25.054Z,10.50
2018-02-05T16:49:53.408Z,10.50
2018-02-05T16:52:20.984Z,10.50
2018-02-05T16:54:48.555Z,10.50
2018-02-05T16:57:16.959Z,10.50
2018-02-05T16:59:44.541Z,10.40
2018-02-05T17:02:12.109Z,10.50
2018-02-05T17:04:39.730Z,10.50
2018-02-05T17:07:08.103Z,10.50
2018-02-05T17:09:37.394Z,10.50
2018-02-05T17:12:05.593Z,10.40
2018-02-05T17:14:33.249Z,10.40
2018-02-05T17:17:01.593Z,10.40
2018-02-05T17:19:29.177Z,10.40
2018-02-05T17:21:57.656Z,10.40
2018-02-05T17:24:26.009Z,10.40
2018-02-05T17:26:53.612Z,10.40
2018-02-05T17:29:21.962Z,10.40
2018-02-05T17:31:49.547Z,10.40
2018-02-05T17:35:29.158Z,10.40
2018-02-05T17:37:56.734Z,10.40
2018-02-05T17:40:24.496Z,10.40
2018-02-05T17:42:52.461Z,10.40
2018-02-05T17:45:20.864Z,10.40
2018-02-05T17:47:49.204Z,10.40
2018-02-05T17:50:16.801Z,10.40
2018-02-05T17:52:44.462Z,10.40
2018-02-05T17:55:12.265Z,11.30
2018-02-05T17:57:39.867Z,11.60
2018-02-05T18:00:07.591Z,12.00
2018-02-05T18:02:35.291Z,12.30
2018-02-05T18:05:02.943Z,12.50
2018-02-05T18:07:30.591Z,12.60
2018-02-05T18:09:58.342Z,12.90
2018-02-05T18:12:26.099Z,13.00
2018-02-05T18:14:53.718Z,13.20
2018-02-05T18:17:21.297Z,13.40
2018-02-05T18:19:50.389Z,13.60
2018-02-05T18:22:18.065Z,13.60
2018-02-05T18:24:46.461Z,13.80
2018-02-05T18:27:14.104Z,13.80
2018-02-05T18:29:42.485Z,14.10
2018-02-05T18:32:11.018Z,14.10
2018-02-05T18:34:38.647Z,14.10
2018-02-05T18:37:07.150Z,14.30
2018-02-05T18:39:34.808Z,14.30
2018-02-05T18:42:02.455Z,14.40
2018-02-05T18:44:30.074Z,14.40
2018-02-05T18:46:57.773Z,14.50
2018-02-05T18:49:26.346Z,14.70
2018-02-05T18:51:54.748Z,14.80
2018-02-05T18:54:22.383Z,14.80
2018-02-05T18:56:50.013Z,14.90
2018-02-05T18:59:18.366Z,14.80
2018-02-05T19:01:52.017Z,14.80
2018-02-05T19:04:19.589Z,14.90
2018-02-05T19:06:47.181Z,14.90
2018-02-05T19:09:14.811Z,14.90
2018-02-05T19:11:42.417Z,15.00
2018-02-05T19:14:10.046Z,15.00
2018-02-05T19:16:38.388Z,15.10
2018-02-05T19:19:06.342Z,15.10
2018-02-05T19:21:33.967Z,15.10
2018-02-05T19:24:02.342Z,15.20
2018-02-05T19:26:30.696Z,15.30
2018-02-05T19:28:58.285Z,15.30
2018-02-05T19:31:26.619Z,15.40
2018-02-05T19:33:54.199Z,15.40
2018-02-05T19:36:21.948Z,15.40
2018-02-05T19:38:49.548Z,15.40
2018-02-05T19:41:17.920Z,15.50
2018-02-05T19:43:46.298Z,15.50
2018-02-05T19:46:14.652Z,15.50
2018-02-05T19:48:42.226Z,15.50
2018-02-05T19:51:09.949Z,15.60
2018-02-05T19:53:37.513Z,15.40
2018-02-05T19:56:05.595Z,15.00
2018-02-05T19:58:33.303Z,14.60
2018-02-05T20:01:01.694Z,14.00
2018-02-05T20:03:30.036Z,13.70
2018-02-05T20:05:57.610Z,13.70
2018-02-05T20:08:25.292Z,13.50
2018-02-05T20:10:53.657Z,13.00
2018-02-05T20:13:22.057Z,12.90
2018-02-05T20:15:50.501Z,12.80
2018-02-05T20:18:18.068Z,12.70
2018-02-05T20:20:45.763Z,12.60
2018-02-05T20:23:14.179Z,12.30
2018-02-05T20:25:41.748Z,12.30
2018-02-05T20:28:09.352Z,12.20
2018-02-05T20:30:37.703Z,12.00
2018-02-05T20:33:05.304Z,12.00
2018-02-05T20:35:33.634Z,11.90
2018-02-05T20:38:01.243Z,11.90
2018-02-05T20:40:29.961Z,11.80
2018-02-05T20:42:57.689Z,11.80
2018-02-05T20:45:26.077Z,11.60
2018-02-05T20:47:54.441Z,11.60
2018-02-05T20:50:22.842Z,11.60
2018-02-05T20:52:50.492Z,11.50
2018-02-05T20:55:18.914Z,11.50
2018-02-05T20:57:46.532Z,11.50
2018-02-05T21:00:14.956Z,11.40
2018-02-05T21:02:42.573Z,11.40
2018-02-05T21:05:11.085Z,11.40
2018-02-05T21:07:38.776Z,11.30
2018-02-05T21:10:06.589Z,11.30
2018-02-05T21:12:35.718Z,11.30
2018-02-05T21:15:03.346Z,11.20
2018-02-05T21:17:31.690Z,11.20
2018-02-05T21:19:59.274Z,11.20
2018-02-05T21:22:26.846Z,11.20
2018-02-05T21:24:55.204Z,11.20
2018-02-05T21:27:22.881Z,11.10
2018-02-05T21:29:51.067Z,11.10
2018-02-05T21:32:18.691Z,11.10
2018-02-05T21:34:46.270Z,11.10
2018-02-05T21:37:13.851Z,11.10
2018-02-05T21:39:42.203Z,11.10
2018-02-05T21:42:09.776Z,11.00
2018-02-05T21:44:37.454Z,11.00
2018-02-05T21:47:06.090Z,11.00
2018-02-05T21:49:33.718Z,11.00
2018-02-05T21:52:01.393Z,11.00
2018-02-05T21:54:29.015Z,10.90
2018-02-05T21:56:56.593Z,10.90
2018-02-05T21:59:24.955Z,10.90
2018-02-05T22:01:52.547Z,10.90
2018-02-05T22:04:20.114Z,10.90
2018-02-05T22:06:47.743Z,10.90
2018-02-05T22:09:16.140Z,10.90
2018-02-05T22:11:43.823Z,10.90
2018-02-05T22:14:11.408Z,10.90
2018-02-05T22:16:38.995Z,10.80
2018-02-05T22:19:06.867Z,10.80
2018-02-05T22:21:34.465Z,10.80
2018-02-05T22:24:02.092Z,10.80
2018-02-05T22:26:29.671Z,10.80
2018-02-05T22:28:58.061Z,10.80
2018-02-05T22:31:25.738Z,10.80
2018-02-05T22:33:53.354Z,10.80
2018-02-05T22:36:21.029Z,10.70
2018-02-05T22:38:49.363Z,10.70
2018-02-05T22:41:16.969Z,10.70
2018-02-05T22:43:45.334Z,10.70
2018-02-05T22:46:13.322Z,10.70
2018-02-05T22:48:41.652Z,10.70
2018-02-05T22:51:09.563Z,10.70
2018-02-05T22:53:37.326Z,10.70
2018-02-05T22:56:05.723Z,10.70
2018-02-05T22:58:34.058Z,10.60
2018-02-05T23:01:01.655Z,10.60
2018-02-05T23:03:30.024Z,10.60
2018-02-05T23:05:57.612Z,10.60
2018-02-05T23:08:25.252Z,10.60
2018-02-05T23:10:53.625Z,10.60
2018-02-05T23:13:21.194Z,10.60
2018-02-05T23:15:49.565Z,10.60
2018-02-05T23:18:17.527Z,10.60
2018-02-05T23:20:45.197Z,10.60
2018-02-05T23:23:12.866Z,10.60
2018-02-05T23:25:40.444Z,10.60
2018-02-05T23:28:09.109Z,10.60
2018-02-05T23:30:37.494Z,10.60
2018-02-05T23:33:06.786Z,10.50
2018-02-05T23:35:34.362Z,10.50
2018-02-05T23:38:02.701Z,10.60
2018-02-05T23:40:30.297Z,10.50
2018-02-05T23:42:58.675Z,10.50
2018-02-05T23:45:27.050Z,10.50
2018-02-05T23:47:54.723Z,10.50
2018-02-05T23:50:23.063Z,10.50
2018-02-05T23:52:50.653Z,10.50
2018-02-05T23:55:18.235Z,10.50
2018-02-05T23:57:46.611Z,10.50
